createdAt,value
2022-12-11T00:01:25.278Z,-2.20
2022-12-11T00:03:57.728Z,-2.20
2022-12-11T00:06:24.562Z,-2.80
2022-12-11T00:08:56.541Z,-2.20
2022-12-11T00:11:29.138Z,-2.20
2022-12-11T00:13:55.944Z,-1.40
2022-12-11T00:16:26.965Z,-2.20
2022-12-11T00:18:54.320Z,-1.80
2022-12-11T00:21:21.082Z,-1.40
2022-12-11T00:23:48.115Z,-1.30
2022-12-11T00:26:15.619Z,-2.20
2022-12-11T00:28:45.664Z,-2.20
2022-12-11T00:31:17.011Z,-1.50
2022-12-11T00:33:44.213Z,-2.30
2022-12-11T00:36:17.911Z,-2.30
2022-12-11T00:38:47.030Z,-2.30
2022-12-11T00:41:13.845Z,-2.30
2022-12-11T00:44:37.326Z,-2.30
2022-12-11T00:47:06.413Z,-2.40
2022-12-11T00:49:38.781Z,-2.40
2022-12-11T00:52:08.343Z,-2.40
2022-12-11T00:54:37.541Z,-2.40
2022-12-11T00:57:36.794Z,-2.40
2022-12-11T01:00:15.154Z,-2.40
2022-12-11T01:02:44.312Z,-2.40
2022-12-11T01:05:12.050Z,-2.40
2022-12-11T01:07:39.171Z,-2.40
2022-12-11T01:10:25.327Z,-2.40
2022-12-11T01:12:55.063Z,-2.40
2022-12-11T01:18:03.888Z,-2.50
2022-12-11T01:20:49.042Z,-2.50
2022-12-11T01:23:18.917Z,-2.50
2022-12-11T01:25:47.664Z,-2.50
2022-12-11T01:28:20.239Z,-2.50
2022-12-11T01:30:49.269Z,-1.70
2022-12-11T01:33:18.355Z,-2.10
2022-12-11T01:35:52.332Z,-2.50
2022-12-11T01:38:21.544Z,-2.20
2022-12-11T01:40:49.716Z,-2.00
2022-12-11T01:43:28.561Z,-2.70
2022-12-11T01:46:20.787Z,-2.60
2022-12-11T01:48:49.872Z,-2.60
2022-12-11T01:51:16.699Z,-2.60
2022-12-11T01:53:45.787Z,-2.70
2022-12-11T01:56:14.819Z,-2.70
2022-12-11T01:58:47.371Z,-2.70
2022-12-11T02:01:15.198Z,-2.70
2022-12-11T02:03:42.776Z,-2.70
2022-12-11T02:06:28.491Z,-2.70
2022-12-11T02:08:55.228Z,-2.80
2022-12-11T02:11:21.959Z,-2.80
2022-12-11T02:14:02.513Z,-2.40
2022-12-11T02:16:30.568Z,-2.80
2022-12-11T02:19:00.642Z,-2.80
2022-12-11T02:21:28.784Z,-2.80
2022-12-11T02:24:08.360Z,-2.90
2022-12-11T02:26:40.383Z,-2.90
2022-12-11T02:29:08.410Z,-2.60
2022-12-11T02:31:45.923Z,-2.50
2022-12-11T02:34:20.415Z,-2.90
2022-12-11T02:36:48.977Z,-2.90
2022-12-11T02:39:16.178Z,-2.90
2022-12-11T02:41:49.801Z,-2.90
2022-12-11T02:44:17.706Z,-3.00
2022-12-11T02:46:44.489Z,-2.90
2022-12-11T02:49:11.636Z,-3.00
2022-12-11T02:51:39.531Z,-3.00
2022-12-11T02:54:07.193Z,-3.00
2022-12-11T02:56:34.775Z,-3.00
2022-12-11T02:59:03.381Z,-3.00
2022-12-11T03:01:30.275Z,-3.00
2022-12-11T03:03:57.067Z,-2.10
2022-12-11T03:06:30.796Z,-3.00
2022-12-11T03:08:57.617Z,-3.00
2022-12-11T03:11:24.366Z,-3.10
2022-12-11T03:13:51.614Z,-3.00
2022-12-11T03:16:29.892Z,-3.10
2022-12-11T03:19:02.638Z,-3.00
2022-12-11T03:21:58.819Z,-3.00
2022-12-11T03:24:38.066Z,-3.00
2022-12-11T03:27:11.157Z,-3.00
2022-12-11T03:29:39.629Z,-1.60
2022-12-11T03:32:06.333Z,-3.20
2022-12-11T03:34:54.553Z,-3.00
2022-12-11T03:37:24.892Z,-3.10
2022-12-11T03:39:52.605Z,-2.20
2022-12-11T03:42:19.627Z,-3.10
2022-12-11T03:44:47.213Z,-2.40
2022-12-11T03:47:15.356Z,-2.10
2022-12-11T03:49:42.328Z,-3.20
2022-12-11T03:52:09.715Z,-3.20
2022-12-11T03:54:36.509Z,-3.30
2022-12-11T03:57:03.339Z,-3.20
2022-12-11T03:59:30.152Z,-3.20
2022-12-11T04:01:57.080Z,-2.50
2022-12-11T04:04:23.813Z,-3.30
2022-12-11T04:06:50.638Z,-3.30
2022-12-11T04:09:17.382Z,-3.30
2022-12-11T04:11:44.117Z,-3.30
2022-12-11T04:14:30.008Z,-3.20
2022-12-11T04:16:56.970Z,-3.00
2022-12-11T04:19:42.298Z,-3.30
2022-12-11T04:22:35.659Z,-3.30
2022-12-11T04:25:02.535Z,-3.30
2022-12-11T04:27:47.946Z,-3.40
2022-12-11T04:30:15.688Z,-3.30
2022-12-11T04:32:42.592Z,-3.30
2022-12-11T04:35:09.727Z,-3.30
2022-12-11T04:37:36.812Z,-3.30
2022-12-11T04:40:07.048Z,-3.30
2022-12-11T04:42:33.845Z,-3.40
2022-12-11T04:45:00.631Z,-3.10
2022-12-11T04:47:27.739Z,-3.40
2022-12-11T04:49:54.530Z,-3.40
2022-12-11T04:52:21.322Z,-3.40
2022-12-11T04:54:48.287Z,-3.00
2022-12-11T04:57:15.156Z,-3.10
2022-12-11T04:59:41.894Z,-3.40
2022-12-11T05:02:08.591Z,-2.70
2022-12-11T05:04:35.408Z,-2.80
2022-12-11T05:07:02.153Z,-3.50
2022-12-11T05:09:29.775Z,-3.50
2022-12-11T05:11:56.476Z,-3.40
2022-12-11T05:14:23.222Z,-3.50
2022-12-11T05:16:49.905Z,-3.50
2022-12-11T05:19:16.709Z,-3.50
2022-12-11T05:21:43.410Z,-3.50
2022-12-11T05:24:10.223Z,-2.50
2022-12-11T05:26:37.116Z,-3.50
2022-12-11T05:29:03.907Z,-3.20
2022-12-11T05:31:30.717Z,-3.40
2022-12-11T05:33:57.457Z,-3.50
2022-12-11T05:36:28.363Z,-3.50
2022-12-11T05:38:55.599Z,-3.50
2022-12-11T05:41:23.233Z,-3.50
2022-12-11T05:43:50.057Z,-3.50
2022-12-11T05:46:20.748Z,-3.50
2022-12-11T05:48:48.061Z,-3.50
2022-12-11T05:51:15.228Z,-3.10
2022-12-11T05:53:42.144Z,-3.60
2022-12-11T05:56:10.958Z,-3.50
2022-12-11T05:58:37.805Z,-2.90
2022-12-11T06:01:11.681Z,-3.60
2022-12-11T06:03:38.768Z,-3.60
2022-12-11T06:06:05.735Z,-3.60
2022-12-11T06:08:32.534Z,-3.60
2022-12-11T06:10:59.382Z,-3.60
2022-12-11T06:13:26.247Z,-3.60
2022-12-11T06:15:53.130Z,-3.60
2022-12-11T06:18:20.038Z,-3.70
2022-12-11T06:20:46.939Z,-3.60
2022-12-11T06:23:14.019Z,-3.60
2022-12-11T06:25:41.017Z,-3.50
2022-12-11T06:28:07.856Z,-3.50
2022-12-11T06:30:38.840Z,-2.70
2022-12-11T06:33:06.590Z,-3.40
2022-12-11T06:35:38.619Z,-3.40
2022-12-11T06:38:08.711Z,-3.40
2022-12-11T06:40:35.521Z,-3.30
2022-12-11T06:43:02.257Z,-3.30
2022-12-11T06:45:29.032Z,-2.60
2022-12-11T06:47:55.819Z,-3.20
2022-12-11T06:50:22.545Z,-3.10
2022-12-11T06:52:49.214Z,-3.10
2022-12-11T06:55:15.968Z,-3.00
2022-12-11T06:57:42.810Z,-3.00
2022-12-11T07:00:09.816Z,-2.90
2022-12-11T07:02:36.719Z,-2.90
2022-12-11T07:05:03.691Z,-2.90
2022-12-11T07:07:30.537Z,-2.80
2022-12-11T07:09:58.058Z,-2.80
2022-12-11T07:12:27.393Z,-2.80
2022-12-11T07:14:54.182Z,-2.70
2022-12-11T07:17:20.970Z,-2.70
2022-12-11T07:19:47.693Z,-1.80
2022-12-11T07:22:14.509Z,-2.60
2022-12-11T07:24:41.384Z,-2.70
2022-12-11T07:27:08.767Z,-2.40
2022-12-11T07:29:35.509Z,-2.70
2022-12-11T07:32:02.423Z,-2.70
2022-12-11T07:34:29.340Z,-2.70
2022-12-11T07:36:56.425Z,-2.70
2022-12-11T07:39:23.121Z,-2.70
2022-12-11T07:41:49.885Z,-2.60
2022-12-11T07:44:16.728Z,-2.70
2022-12-11T07:46:43.493Z,-2.70
2022-12-11T07:49:10.158Z,-1.90
2022-12-11T07:51:40.005Z,-2.70
2022-12-11T07:54:07.780Z,-2.70
2022-12-11T07:56:34.650Z,-2.60
2022-12-11T07:59:19.805Z,-2.60
2022-12-11T08:04:30.715Z,-2.50
2022-12-11T08:06:57.640Z,-2.60
2022-12-11T08:09:24.365Z,-2.50
2022-12-11T08:11:51.337Z,-2.50
2022-12-11T08:14:18.358Z,-2.50
2022-12-11T08:16:52.426Z,-2.50
2022-12-11T08:19:36.772Z,-1.40
2022-12-11T08:22:07.469Z,-2.40
2022-12-11T08:24:34.397Z,-2.10
2022-12-11T08:27:01.462Z,-2.30
2022-12-11T08:29:28.348Z,-1.90
2022-12-11T08:31:55.542Z,-2.30
2022-12-11T08:34:35.697Z,-1.50
2022-12-11T08:37:02.841Z,-2.30
2022-12-11T08:39:29.692Z,-2.30
2022-12-11T08:41:57.215Z,-2.30
2022-12-11T08:44:26.271Z,-2.30
2022-12-11T08:46:52.981Z,-2.20
2022-12-11T08:49:19.670Z,-2.20
2022-12-11T08:51:46.387Z,-2.20
2022-12-11T08:54:13.153Z,-2.20
2022-12-11T08:56:39.894Z,-2.20
2022-12-11T08:59:06.928Z,-1.90
2022-12-11T09:01:33.830Z,-2.10
2022-12-11T09:04:00.833Z,-2.20
2022-12-11T09:06:28.527Z,-2.20
2022-12-11T09:08:56.249Z,-2.20
2022-12-11T09:11:27.168Z,-2.20
2022-12-11T09:13:53.946Z,-2.20
2022-12-11T09:16:21.925Z,-2.10
2022-12-11T09:18:49.221Z,-2.10
2022-12-11T09:21:17.560Z,-2.00
2022-12-11T09:23:44.551Z,-2.00
2022-12-11T09:26:12.166Z,-1.90
2022-12-11T09:28:45.727Z,-1.90
2022-12-11T09:31:17.267Z,-1.80
2022-12-11T09:33:44.097Z,-1.90
2022-12-11T09:36:11.159Z,-1.90
2022-12-11T09:38:37.867Z,-1.90
2022-12-11T09:41:26.930Z,-1.30
2022-12-11T09:43:53.667Z,-1.80
2022-12-11T09:46:24.462Z,-1.90
2022-12-11T09:48:53.541Z,-1.90
2022-12-11T09:51:37.709Z,-1.80
2022-12-11T09:54:04.530Z,-1.80
2022-12-11T09:56:46.098Z,-1.80
2022-12-11T09:59:31.832Z,-1.70
2022-12-11T10:01:58.527Z,-1.70
2022-12-11T10:04:30.665Z,-1.70
2022-12-11T10:07:10.187Z,-1.60
2022-12-11T10:09:39.283Z,-1.60
2022-12-11T10:12:06.181Z,-1.60
2022-12-11T10:14:36.441Z,-1.60
2022-12-11T10:17:29.722Z,-1.60
2022-12-11T10:19:57.153Z,-1.60
2022-12-11T10:22:25.154Z,-1.10
2022-12-11T10:25:10.666Z,-1.60
2022-12-11T10:27:40.109Z,-1.60
2022-12-11T10:30:13.027Z,-1.60
2022-12-11T10:32:48.750Z,-1.40
2022-12-11T10:35:35.673Z,-1.50
2022-12-11T10:38:20.931Z,-1.40
2022-12-11T10:40:50.004Z,-1.40
2022-12-11T10:43:17.157Z,-1.30
2022-12-11T10:45:52.936Z,-1.00
2022-12-11T10:48:19.817Z,-1.20
2022-12-11T10:50:55.534Z,-1.20
2022-12-11T10:53:22.365Z,-1.20
2022-12-11T10:55:49.200Z,-1.20
2022-12-11T10:58:20.234Z,-1.10
2022-12-11T11:00:47.169Z,-1.10
2022-12-11T11:03:24.142Z,-1.10
2022-12-11T11:05:50.933Z,-1.60
2022-12-11T11:08:22.835Z,-1.10
2022-12-11T11:10:53.822Z,-1.10
2022-12-11T11:13:21.867Z,-1.00
2022-12-11T11:15:51.758Z,-1.00
2022-12-11T11:18:25.493Z,-1.00
2022-12-11T11:20:52.287Z,-0.90
2022-12-11T11:23:19.372Z,-0.90
2022-12-11T11:25:50.360Z,-0.90
2022-12-11T11:28:27.605Z,-0.80
2022-12-11T11:31:01.911Z,-0.70
2022-12-11T11:33:28.745Z,-0.70
2022-12-11T11:35:56.671Z,-0.70
2022-12-11T11:38:55.013Z,-0.60
2022-12-11T11:41:25.781Z,-0.60
2022-12-11T11:43:56.564Z,-0.60
2022-12-11T11:46:28.273Z,-0.30
2022-12-11T11:49:01.204Z,-0.60
2022-12-11T11:51:32.451Z,-0.60
2022-12-11T11:54:00.788Z,-0.50
2022-12-11T11:56:37.700Z,-0.50
2022-12-11T11:59:15.946Z,-0.50
2022-12-11T12:01:42.996Z,-0.50
2022-12-11T12:04:09.820Z,-0.50
2022-12-11T12:06:50.729Z,-0.50
2022-12-11T12:09:21.595Z,-0.50
2022-12-11T12:11:57.499Z,-0.50
2022-12-11T12:17:24.983Z,-0.40
2022-12-11T12:19:54.859Z,-0.40
2022-12-11T12:22:24.572Z,-0.40
2022-12-11T12:25:00.752Z,-0.30
2022-12-11T12:27:53.964Z,-0.20
2022-12-11T12:30:23.225Z,-0.20
2022-12-11T12:33:09.530Z,-0.10
2022-12-11T12:35:36.991Z,-0.70
2022-12-11T12:38:06.789Z,-0.10
2022-12-11T12:40:33.818Z,-0.10
2022-12-11T12:43:12.916Z,0.20
2022-12-11T12:46:09.198Z,0.10
2022-12-11T12:48:36.021Z,-0.10
2022-12-11T12:51:02.760Z,-0.10
2022-12-11T12:53:35.472Z,0.00
2022-12-11T12:56:02.301Z,0.00
2022-12-11T12:58:49.206Z,0.00
2022-12-11T13:01:21.947Z,0.10
2022-12-11T13:04:26.261Z,0.00
2022-12-11T13:06:56.963Z,0.00
2022-12-11T13:09:27.916Z,0.50
2022-12-11T13:11:59.309Z,0.00
2022-12-11T13:14:31.704Z,0.10
2022-12-11T13:17:17.733Z,0.10
2022-12-11T13:19:47.471Z,0.10
2022-12-11T13:22:25.279Z,-0.20
2022-12-11T13:25:04.365Z,0.20
2022-12-11T13:27:42.366Z,0.20
2022-12-11T13:30:15.573Z,0.30
2022-12-11T13:32:42.679Z,0.30
2022-12-11T13:35:15.542Z,0.20
2022-12-11T13:37:43.575Z,0.20
2022-12-11T13:40:17.410Z,0.30
2022-12-11T13:42:47.658Z,0.30
2022-12-11T13:45:28.178Z,0.30
2022-12-11T13:47:58.281Z,0.30
2022-12-11T13:50:26.630Z,0.30
2022-12-11T13:52:57.787Z,0.60
2022-12-11T13:55:40.616Z,0.40
2022-12-11T13:58:20.242Z,0.40
2022-12-11T14:00:55.081Z,0.10
2022-12-11T14:03:47.456Z,0.40
2022-12-11T14:06:31.211Z,0.40
2022-12-11T14:08:59.132Z,0.40
2022-12-11T14:14:32.767Z,0.50
2022-12-11T14:18:03.192Z,1.50
2022-12-11T14:19:50.195Z,0.40
2022-12-11T14:22:27.966Z,1.60
2022-12-11T14:24:58.615Z,0.50
2022-12-11T14:27:26.530Z,0.40
2022-12-11T14:29:53.515Z,0.60
2022-12-11T14:32:38.726Z,0.50
2022-12-11T14:35:06.256Z,0.50
2022-12-11T14:37:46.253Z,0.50
2022-12-11T14:40:16.009Z,0.80
2022-12-11T14:43:00.468Z,0.50
2022-12-11T14:45:38.623Z,0.60
2022-12-11T14:48:08.180Z,0.60
2022-12-11T14:50:52.128Z,0.60
2022-12-11T14:53:30.620Z,0.60
2022-12-11T14:55:58.321Z,0.60
2022-12-11T14:58:28.453Z,0.60
2022-12-11T15:01:03.671Z,2.20
2022-12-11T15:03:37.837Z,0.60
2022-12-11T15:06:21.619Z,0.70
2022-12-11T15:08:48.425Z,0.60
2022-12-11T15:11:16.138Z,0.60
2022-12-11T15:13:49.010Z,2.20
2022-12-11T15:16:15.929Z,0.70
2022-12-11T15:18:43.032Z,0.50
2022-12-11T15:21:10.681Z,1.00
2022-12-11T15:23:47.077Z,0.70
2022-12-11T15:26:14.073Z,1.30
2022-12-11T15:28:41.179Z,0.70
2022-12-11T15:31:23.910Z,0.70
2022-12-11T15:33:50.628Z,0.20
2022-12-11T15:36:31.925Z,1.10
2022-12-11T15:39:01.597Z,0.80
2022-12-11T15:41:33.181Z,1.40
2022-12-11T15:44:01.433Z,0.80
2022-12-11T15:46:37.225Z,0.80
2022-12-11T15:49:05.945Z,0.90
2022-12-11T15:51:41.125Z,0.80
2022-12-11T15:54:11.834Z,0.90
2022-12-11T15:56:38.732Z,0.80
2022-12-11T15:59:18.113Z,0.80
2022-12-11T16:01:47.621Z,0.80
2022-12-11T16:04:14.446Z,0.70
2022-12-11T16:06:48.760Z,1.90
2022-12-11T16:09:18.078Z,0.90
2022-12-11T16:11:50.794Z,0.90
2022-12-11T16:14:17.590Z,0.90
2022-12-11T16:16:46.923Z,1.10
2022-12-11T16:19:20.509Z,0.80
2022-12-11T16:21:58.680Z,0.90
2022-12-11T16:24:34.818Z,1.00
2022-12-11T16:27:03.857Z,1.20
2022-12-11T16:29:39.869Z,2.10
2022-12-11T16:32:12.947Z,1.00
2022-12-11T16:34:39.799Z,1.10
2022-12-11T16:37:07.024Z,1.40
2022-12-11T16:39:33.983Z,1.80
2022-12-11T16:42:01.268Z,1.00
2022-12-11T16:44:28.055Z,1.00
2022-12-11T16:46:55.085Z,1.20
2022-12-11T16:49:22.244Z,1.30
2022-12-11T16:51:49.769Z,1.00
2022-12-11T16:54:16.868Z,1.10
2022-12-11T16:56:46.066Z,1.10
2022-12-11T16:59:13.247Z,1.10
2022-12-11T17:01:44.452Z,1.10
2022-12-11T17:04:11.743Z,1.10
2022-12-11T17:09:20.897Z,0.90
2022-12-11T17:11:50.072Z,1.10
2022-12-11T17:14:16.960Z,2.20
2022-12-11T17:16:46.193Z,1.20
2022-12-11T17:19:12.888Z,1.20
2022-12-11T17:21:39.667Z,1.20
2022-12-11T17:24:10.781Z,1.20
2022-12-11T17:26:37.520Z,1.20
2022-12-11T17:29:04.345Z,1.00
2022-12-11T17:31:31.267Z,1.00
2022-12-11T17:34:00.396Z,1.60
2022-12-11T17:36:27.379Z,1.20
2022-12-11T17:38:54.224Z,1.20
2022-12-11T17:41:21.980Z,1.20
2022-12-11T17:43:49.493Z,2.50
2022-12-11T17:46:16.427Z,1.20
2022-12-11T17:48:43.583Z,1.20
2022-12-11T17:51:11.883Z,2.20
2022-12-11T17:53:38.895Z,1.60
2022-12-11T17:56:06.493Z,1.30
2022-12-11T17:58:33.492Z,1.20
2022-12-11T18:01:00.469Z,1.20
2022-12-11T18:03:27.611Z,1.50
2022-12-11T18:05:55.589Z,1.30
2022-12-11T18:08:26.674Z,1.50
2022-12-11T18:10:53.585Z,1.30
2022-12-11T18:13:20.568Z,2.30
2022-12-11T18:15:47.405Z,1.50
2022-12-11T18:18:14.228Z,1.30
2022-12-11T18:20:41.085Z,1.80
2022-12-11T18:23:08.051Z,1.30
2022-12-11T18:25:37.482Z,2.20
2022-12-11T18:28:04.881Z,1.30
2022-12-11T18:30:31.802Z,1.30
2022-12-11T18:32:58.629Z,1.40
2022-12-11T18:35:25.661Z,1.30
2022-12-11T18:37:52.520Z,1.30
2022-12-11T18:40:19.266Z,1.30
2022-12-11T18:42:46.016Z,1.30
2022-12-11T18:45:13.143Z,1.40
2022-12-11T18:47:40.108Z,1.30
2022-12-11T18:50:08.196Z,1.40
2022-12-11T18:52:36.281Z,1.40
2022-12-11T18:55:03.404Z,1.40
2022-12-11T18:57:30.300Z,1.50
2022-12-11T18:59:57.348Z,2.70
2022-12-11T19:02:24.195Z,2.00
2022-12-11T19:04:50.933Z,1.60
2022-12-11T19:07:17.739Z,2.00
2022-12-11T19:09:48.097Z,1.40
2022-12-11T19:12:15.388Z,1.30
2022-12-11T19:14:42.258Z,1.40
2022-12-11T19:17:09.130Z,2.10
2022-12-11T19:19:46.383Z,1.40
2022-12-11T19:22:13.605Z,1.40
2022-12-11T19:24:40.790Z,1.40
2022-12-11T19:27:13.440Z,1.30
2022-12-11T19:29:40.702Z,1.70
2022-12-11T19:32:07.700Z,2.10
2022-12-11T19:34:34.657Z,1.20
2022-12-11T19:37:01.500Z,1.50
2022-12-11T19:39:28.754Z,1.30
2022-12-11T19:41:55.604Z,1.20
2022-12-11T19:47:05.060Z,1.20
2022-12-11T19:49:31.875Z,1.20
2022-12-11T19:51:58.959Z,2.20
2022-12-11T19:54:26.948Z,1.10
2022-12-11T19:56:56.762Z,1.20
2022-12-11T19:59:23.809Z,1.00
2022-12-11T20:01:51.423Z,0.80
2022-12-11T20:04:18.400Z,0.80
2022-12-11T20:06:53.116Z,1.00
2022-12-11T20:09:20.883Z,1.20
2022-12-11T20:11:48.033Z,1.00
2022-12-11T20:14:22.152Z,1.80
2022-12-11T20:19:36.771Z,1.10
2022-12-11T20:22:03.973Z,1.60
2022-12-11T20:24:30.768Z,0.90
2022-12-11T20:27:00.724Z,1.10
2022-12-11T20:29:27.835Z,0.80
2022-12-11T20:31:54.907Z,0.90
2022-12-11T20:34:21.822Z,0.80
2022-12-11T20:36:50.710Z,1.40
2022-12-11T20:39:17.649Z,1.20
2022-12-11T20:44:30.694Z,1.30
2022-12-11T20:46:57.538Z,0.70
2022-12-11T20:49:25.989Z,1.50
2022-12-11T20:51:52.822Z,0.70
2022-12-11T20:54:19.757Z,0.60
2022-12-11T20:56:46.986Z,0.60
2022-12-11T20:59:14.011Z,0.50
2022-12-11T21:01:41.200Z,0.90
2022-12-11T21:04:08.169Z,0.60
2022-12-11T21:06:35.687Z,0.60
2022-12-11T21:09:08.886Z,0.60
2022-12-11T21:11:37.815Z,0.60
2022-12-11T21:14:04.690Z,1.60
2022-12-11T21:16:34.864Z,2.40
2022-12-11T21:19:05.344Z,0.60
2022-12-11T21:21:32.605Z,0.30
2022-12-11T21:24:02.423Z,1.00
2022-12-11T21:26:29.488Z,0.70
2022-12-11T21:28:56.425Z,0.50
2022-12-11T21:31:29.174Z,2.00
2022-12-11T21:33:56.401Z,0.50
2022-12-11T21:36:23.632Z,0.50
2022-12-11T21:38:50.456Z,1.40
2022-12-11T21:41:18.859Z,0.50
2022-12-11T21:44:40.827Z,2.30
2022-12-11T21:46:33.158Z,1.70
2022-12-11T21:49:01.422Z,1.50
2022-12-11T21:51:35.688Z,0.50
2022-12-11T21:54:05.339Z,1.50
2022-12-11T21:56:34.296Z,0.40
2022-12-11T21:59:03.913Z,1.40
2022-12-11T22:01:36.309Z,2.10
2022-12-11T22:04:06.505Z,0.60
2022-12-11T22:06:47.232Z,0.90
2022-12-11T22:09:17.165Z,1.70
2022-12-11T22:11:58.831Z,0.50
2022-12-11T22:14:31.564Z,0.50
2022-12-11T22:17:02.084Z,0.80
2022-12-11T22:19:41.806Z,0.80
2022-12-11T22:22:11.754Z,0.60
2022-12-11T22:24:40.220Z,1.40
2022-12-11T22:27:10.045Z,1.60
2022-12-11T22:29:38.102Z,0.80
2022-12-11T22:32:05.187Z,0.70
2022-12-11T22:34:37.326Z,1.60
2022-12-11T22:37:05.162Z,0.70
2022-12-11T22:39:32.180Z,0.60
2022-12-11T22:42:00.139Z,0.70
2022-12-11T22:44:27.927Z,1.00
2022-12-11T22:46:57.637Z,2.30
2022-12-11T22:49:30.020Z,0.70
2022-12-11T22:52:04.005Z,1.50
2022-12-11T22:54:36.989Z,1.60
2022-12-11T22:57:15.520Z,1.00
2022-12-11T22:59:54.613Z,0.80
2022-12-11T23:02:21.847Z,1.00
2022-12-11T23:04:48.742Z,1.00
2022-12-11T23:07:15.992Z,2.40
2022-12-11T23:09:46.693Z,0.90
2022-12-11T23:12:19.004Z,1.10
2022-12-11T23:14:49.699Z,-0.10
2022-12-11T23:17:16.717Z,1.10
2022-12-11T23:19:47.220Z,1.80
2022-12-11T23:22:20.599Z,0.80
2022-12-11T23:24:47.646Z,0.80
2022-12-11T23:27:19.769Z,1.00
2022-12-11T23:29:48.304Z,1.10
2022-12-11T23:32:15.673Z,0.90
2022-12-11T23:34:45.853Z,0.90
2022-12-11T23:37:13.302Z,0.80
2022-12-11T23:39:46.725Z,0.90
2022-12-11T23:42:14.327Z,0.90
2022-12-11T23:44:41.313Z,2.20
2022-12-11T23:47:08.173Z,1.30
2022-12-11T23:49:35.016Z,0.90
2022-12-11T23:52:02.350Z,2.70
2022-12-11T23:54:29.213Z,1.00
2022-12-11T23:56:56.282Z,1.10
2022-12-11T23:59:23.130Z,1.00
